Time;durP1;ratioP1;P1;durP2;ratioP2;P2;SDS_P1;SDS_P2;PMS_P1;PMS_P2;Temp;Humidity;BMP_temperature;BMP_pressure;BME280_temperature;BME280_humidity;BME280_pressure;Samples;Min_cycle;Max_cycle;Signal;HPM_P1;HPM_P2
2022/04/07 00:02:23;;;;;;;2.50;1.20;;;13.40;99.90;;;;;;4987181;28;20041;-72
2022/04/07 00:04:48;;;;;;;1.75;1.23;;;13.30;99.90;;;;;;4990498;28;20013;-71
2022/04/07 00:07:15;;;;;;;1.80;1.20;;;13.30;99.90;;;;;;4986614;28;20030;-72
2022/04/07 00:09:41;;;;;;;;;;;13.20;99.90;;;;;;4986907;28;20026;-71
2022/04/07 00:12:08;;;;;;;0.90;0.68;;;13.20;99.90;;;;;;4991986;28;19912;-71
2022/04/07 00:14:35;;;;;;;0.43;0.43;;;13.20;99.90;;;;;;4985290;28;20037;-72
2022/04/07 00:17:00;;;;;;;;;;;13.20;99.90;;;;;;4991978;28;20160;-72
2022/04/07 00:19:27;;;;;;;0.75;0.68;;;13.20;99.90;;;;;;4991761;28;20000;-71
2022/04/07 00:21:56;;;;;;;;;;;13.20;99.90;;;;;;4990416;28;20087;-72
2022/04/07 00:24:22;;;;;;;2.72;0.85;;;13.10;99.90;;;;;;4991920;28;19996;-71
2022/04/07 00:26:48;;;;;;;;;;;13.10;99.90;;;;;;4984166;28;20750;-71
2022/04/07 00:29:14;;;;;;;0.75;0.45;;;13.10;99.90;;;;;;5002575;28;19913;-72
2022/04/07 00:31:39;;;;;;;0.83;0.60;;;13.20;99.90;;;;;;4986277;28;20024;-71
2022/04/07 00:34:06;;;;;;;2.72;1.13;;;13.20;99.90;;;;;;4992439;28;20025;-71
2022/04/07 00:36:32;;;;;;;2.47;0.98;;;13.10;99.90;;;;;;4987030;28;20053;-72
2022/04/07 00:38:58;;;;;;;1.70;1.10;;;13.10;99.90;;;;;;4992487;28;20069;-71
2022/04/07 00:41:25;;;;;;;1.38;0.80;;;13.10;99.90;;;;;;4991067;28;20889;-72
2022/04/07 00:43:51;;;;;;;1.10;0.80;;;13.00;99.90;;;;;;4989252;28;20017;-72
2022/04/07 00:46:17;;;;;;;0.60;0.60;;;13.00;99.90;;;;;;4991029;28;20072;-71
2022/04/07 00:48:43;;;;;;;0.80;0.60;;;12.90;99.90;;;;;;4985353;28;20034;-72
2022/04/07 00:51:09;;;;;;;1.10;0.47;;;12.90;99.90;;;;;;4981757;28;20041;-71
2022/04/07 00:53:36;;;;;;;0.60;0.60;;;12.90;99.90;;;;;;4989220;28;20038;-72
2022/04/07 00:56:01;;;;;;;0.70;0.52;;;12.90;99.90;;;;;;4983459;28;20079;-72
2022/04/07 00:58:29;;;;;;;0.50;0.47;;;12.90;99.90;;;;;;4991170;28;20105;-72
2022/04/07 01:00:58;;;;;;;1.33;0.70;;;12.90;99.90;;;;;;4988596;28;20022;-71
2022/04/07 01:03:25;;;;;;;1.67;0.63;;;12.90;99.90;;;;;;4989074;28;20018;-71
2022/04/07 01:05:51;;;;;;;;;;;12.80;99.90;;;;;;4986244;28;20065;-71
2022/04/07 01:08:18;;;;;;;0.52;0.50;;;12.80;99.90;;;;;;4981662;28;20005;-71
2022/04/07 01:10:45;;;;;;;;;;;12.80;99.90;;;;;;4988922;28;20022;-71
2022/04/07 01:13:11;;;;;;;1.13;0.45;;;12.70;99.90;;;;;;4985991;28;20367;-71
2022/04/07 01:15:37;;;;;;;0.60;0.50;;;12.70;99.90;;;;;;4991309;28;20041;-71
2022/04/07 01:18:05;;;;;;;1.38;0.50;;;12.60;99.90;;;;;;4980848;28;20337;-72
2022/04/07 01:20:31;;;;;;;0.70;0.68;;;12.60;99.90;;;;;;4984830;28;20034;-71
2022/04/07 01:22:57;;;;;;;;;;;12.50;99.90;;;;;;4989368;28;20352;-71
2022/04/07 01:25:27;;;;;;;0.60;0.60;;;12.50;99.90;;;;;;4979497;28;19914;-71
2022/04/07 01:27:54;;;;;;;1.40;0.60;;;12.50;99.90;;;;;;4989179;28;20040;-71
2022/04/07 01:30:22;;;;;;;0.40;0.38;;;12.50;99.90;;;;;;4987113;28;20026;-71
2022/04/07 01:32:50;;;;;;;0.82;0.40;;;12.50;99.90;;;;;;4985148;28;20101;-72
2022/04/07 01:35:17;;;;;;;0.50;0.40;;;12.40;99.90;;;;;;4986387;28;20678;-71
2022/04/07 01:37:46;;;;;;;1.20;0.60;;;12.40;99.90;;;;;;4987097;28;20161;-71
2022/04/07 01:40:16;;;;;;;0.40;0.35;;;12.40;99.90;;;;;;4983542;28;20030;-71
2022/04/07 01:42:45;;;;;;;0.63;0.35;;;12.40;99.90;;;;;;4989126;28;20403;-71
2022/04/07 01:45:11;;;;;;;0.70;0.68;;;12.40;99.90;;;;;;4988052;28;20053;-71
2022/04/07 01:47:41;;;;;;;0.68;0.63;;;12.40;99.90;;;;;;4992209;28;20563;-72
2022/04/07 01:50:09;;;;;;;0.30;0.30;;;12.30;99.90;;;;;;4988528;28;20108;-71
2022/04/07 01:52:36;;;;;;;0.20;0.20;;;12.40;99.90;;;;;;4988690;28;20327;-71
2022/04/07 01:55:03;;;;;;;1.75;0.40;;;12.40;99.90;;;;;;4983662;28;20033;-71
2022/04/07 01:57:30;;;;;;;0.50;0.20;;;12.40;99.90;;;;;;4985267;28;20022;-71
2022/04/07 01:59:57;;;;;;;0.52;0.30;;;12.40;99.90;;;;;;4988938;28;20105;-71
2022/04/07 02:02:23;;;;;;;;;;;12.50;99.90;;;;;;4991024;28;20678;-71
2022/04/07 02:04:56;;;;;;;0.20;0.20;;;12.50;99.90;;;;;;4992311;28;19914;-71
2022/04/07 02:07:22;;;;;;;0.20;0.20;;;12.50;99.90;;;;;;4982534;28;21105;-71
2022/04/07 02:09:48;;;;;;;0.40;0.30;;;12.50;99.90;;;;;;4988760;28;20093;-71
2022/04/07 02:12:15;;;;;;;0.20;0.20;;;12.50;99.90;;;;;;4986367;28;20045;-72
2022/04/07 02:14:42;;;;;;;;;;;12.50;99.90;;;;;;4993759;28;20010;-71
2022/04/07 02:17:08;;;;;;;0.32;0.20;;;12.60;99.90;;;;;;4983812;28;19909;-71
2022/04/07 02:19:35;;;;;;;0.13;0.13;;;12.60;99.90;;;;;;4986887;28;20030;-71
2022/04/07 02:22:01;;;;;;;0.30;0.20;;;12.60;99.90;;;;;;4987953;28;20146;-72
2022/04/07 02:24:27;;;;;;;0.43;0.30;;;12.60;99.90;;;;;;4987579;28;20105;-71
2022/04/07 02:26:52;;;;;;;0.43;0.25;;;12.60;99.90;;;;;;4989765;28;20109;-71
2022/04/07 02:29:18;;;;;;;1.30;0.20;;;12.50;99.90;;;;;;4986289;28;20018;-71
2022/04/07 02:31:44;;;;;;;0.20;0.20;;;12.50;99.90;;;;;;4991240;28;20026;-71
2022/04/07 02:34:09;;;;;;;0.33;0.10;;;12.50;99.90;;;;;;4986446;28;20030;-71
2022/04/07 02:36:36;;;;;;;0.27;0.27;;;12.40;99.90;;;;;;4994090;28;20239;-71
2022/04/07 02:39:01;;;;;;;0.20;0.20;;;12.30;99.90;;;;;;4985284;28;20050;-71
2022/04/07 02:41:28;;;;;;;0.30;0.30;;;12.30;99.90;;;;;;4987178;28;20054;-72
2022/04/07 02:43:55;;;;;;;0.80;0.50;;;12.20;99.90;;;;;;4988914;28;20026;-71
2022/04/07 02:46:21;;;;;;;1.20;0.32;;;12.20;99.90;;;;;;4986356;28;20213;-72
2022/04/07 02:48:46;;;;;;;1.30;0.10;;;12.20;99.90;;;;;;4991669;28;20468;-71
2022/04/07 02:51:12;;;;;;;1.40;0.20;;;12.10;99.90;;;;;;4990199;28;20026;-71
2022/04/07 02:53:38;;;;;;;0.20;0.20;;;12.10;99.90;;;;;;4993042;28;20417;-71
2022/04/07 02:56:03;;;;;;;0.93;0.50;;;12.00;99.90;;;;;;4983199;28;20045;-71
2022/04/07 02:58:30;;;;;;;0.27;0.27;;;11.90;99.90;;;;;;4992231;28;20056;-71
2022/04/07 03:00:58;;;;;;;0.45;0.35;;;11.80;99.90;;;;;;4991653;28;20700;-71
2022/04/07 03:03:24;;;;;;;0.28;0.28;;;11.80;99.90;;;;;;4986943;28;20034;-72
2022/04/07 03:05:49;;;;;;;1.40;0.20;;;11.70;99.90;;;;;;4994991;28;20196;-72
2022/04/07 03:08:15;;;;;;;1.17;0.47;;;11.70;99.90;;;;;;4986949;28;20034;-71
2022/04/07 03:10:41;;;;;;;0.30;0.30;;;11.60;99.90;;;;;;4991011;28;20030;-71
2022/04/07 03:13:06;;;;;;;0.30;0.23;;;11.50;99.90;;;;;;4984616;28;20116;-71
2022/04/07 03:15:32;;;;;;;0.77;0.50;;;11.40;99.90;;;;;;4993081;28;20018;-71
2022/04/07 03:17:58;;;;;;;0.60;0.40;;;11.30;99.90;;;;;;4991485;28;20018;-71
2022/04/07 03:20:23;;;;;;;0.47;0.37;;;11.30;99.90;;;;;;4985990;28;20053;-71
2022/04/07 03:22:49;;;;;;;0.47;0.40;;;11.20;99.90;;;;;;4987638;28;20134;-71
2022/04/07 03:25:14;;;;;;;0.37;0.33;;;11.20;99.90;;;;;;4986130;28;20092;-71
2022/04/07 03:27:41;;;;;;;1.03;0.50;;;11.10;99.90;;;;;;4994579;28;20026;-71
2022/04/07 03:30:07;;;;;;;;;;;11.10;99.90;;;;;;4984186;28;20053;-71
2022/04/07 03:32:33;;;;;;;0.95;0.50;;;11.10;99.90;;;;;;4992549;28;19944;-71
2022/04/07 03:34:59;;;;;;;0.83;0.50;;;11.00;99.90;;;;;;4992937;28;20421;-71
2022/04/07 03:37:25;;;;;;;1.73;0.50;;;11.00;99.90;;;;;;4988733;28;20118;-71
2022/04/07 03:39:53;;;;;;;1.23;0.50;;;11.00;99.90;;;;;;4990478;28;20027;-71
2022/04/07 03:42:19;;;;;;;1.08;0.52;;;10.90;99.90;;;;;;4985390;28;20049;-71
2022/04/07 03:44:45;;;;;;;;;;;10.80;99.90;;;;;;4988021;28;20036;-71
2022/04/07 03:47:10;;;;;;;0.98;0.45;;;10.80;99.90;;;;;;4984555;28;19905;-72
2022/04/07 03:49:36;;;;;;;0.50;0.50;;;10.80;99.90;;;;;;4987618;28;20026;-71
2022/04/07 03:52:02;;;;;;;0.50;0.50;;;10.70;99.90;;;;;;4987447;28;20030;-72
2022/04/07 03:54:28;;;;;;;0.85;0.38;;;10.80;99.90;;;;;;4991856;28;20056;-71
2022/04/07 03:56:55;;;;;;;0.60;0.60;;;10.70;99.90;;;;;;4996377;28;20084;-71
2022/04/07 03:59:22;;;;;;;0.50;0.50;;;10.80;99.90;;;;;;4983944;28;20084;-71
2022/04/07 04:01:50;;;;;;;;;;;10.80;99.90;;;;;;4989772;28;20025;-71
2022/04/07 04:04:17;;;;;;;0.75;0.50;;;10.80;99.90;;;;;;4988388;28;19924;-71
2022/04/07 04:06:44;;;;;;;1.45;0.52;;;10.80;99.90;;;;;;4991543;28;20436;-72
2022/04/07 04:09:10;;;;;;;0.90;0.43;;;10.70;99.90;;;;;;4986820;28;20041;-72
2022/04/07 04:11:37;;;;;;;0.77;0.50;;;10.70;99.90;;;;;;4990629;28;20025;-71
2022/04/07 04:14:02;;;;;;;;;;;10.70;99.90;;;;;;4993856;28;20033;-71
2022/04/07 04:16:30;;;;;;;0.43;0.30;;;10.70;99.90;;;;;;4987566;28;20274;-72
2022/04/07 04:18:56;;;;;;;1.10;0.57;;;10.70;99.90;;;;;;4989099;28;20030;-71
2022/04/07 04:21:22;;;;;;;0.70;0.70;;;10.70;99.90;;;;;;4987388;28;20030;-71
2022/04/07 04:23:48;;;;;;;2.23;0.30;;;10.80;99.90;;;;;;4984378;28;20084;-71
2022/04/07 04:26:14;;;;;;;0.40;0.40;;;10.80;99.90;;;;;;4986251;28;20727;-72
2022/04/07 04:28:40;;;;;;;2.35;0.40;;;10.70;99.90;;;;;;4985347;28;20011;-72
2022/04/07 04:31:05;;;;;;;0.53;0.40;;;10.80;99.90;;;;;;4977542;28;20030;-72
2022/04/07 04:33:31;;;;;;;0.77;0.30;;;10.70;99.90;;;;;;4987961;28;20097;-72
2022/04/07 04:35:59;;;;;;;1.37;0.50;;;10.80;99.90;;;;;;4987196;28;20022;-71
2022/04/07 04:38:24;;;;;;;0.98;0.45;;;10.70;99.90;;;;;;4989913;28;20120;-71
2022/04/07 04:40:50;;;;;;;0.60;0.60;;;10.70;99.90;;;;;;4987014;28;20104;-72
2022/04/07 04:43:17;;;;;;;1.37;0.27;;;10.70;99.90;;;;;;4993262;28;20121;-71
2022/04/07 04:45:43;;;;;;;0.85;0.45;;;10.80;99.90;;;;;;4987113;28;20472;-72
2022/04/07 04:48:09;;;;;;;0.65;0.50;;;10.80;99.90;;;;;;4990695;28;20348;-71
2022/04/07 04:50:35;;;;;;;0.53;0.40;;;10.70;99.90;;;;;;4984247;28;20072;-72
2022/04/07 04:53:01;;;;;;;0.68;0.30;;;10.80;99.90;;;;;;4989584;28;20097;-71
2022/04/07 04:55:27;;;;;;;0.57;0.50;;;10.80;99.90;;;;;;4988870;28;20087;-71
2022/04/07 04:57:53;;;;;;;0.38;0.38;;;10.80;99.90;;;;;;4986968;28;20026;-71
2022/04/07 05:00:19;;;;;;;0.87;0.37;;;10.80;99.90;;;;;;4991215;28;20026;-71
2022/04/07 05:02:45;;;;;;;0.20;0.20;;;10.80;99.90;;;;;;4984348;28;20071;-72
2022/04/07 05:05:12;;;;;;;0.40;0.40;;;10.80;99.90;;;;;;4987559;28;20038;-71
2022/04/07 05:07:38;;;;;;;0.50;0.50;;;10.80;99.90;;;;;;4988298;28;20026;-72
2022/04/07 05:10:05;;;;;;;0.98;0.93;;;10.80;99.90;;;;;;4990176;28;20034;-72
2022/04/07 05:12:31;;;;;;;;;;;10.90;99.90;;;;;;4992500;28;20479;-71
2022/04/07 05:14:57;;;;;;;0.30;0.30;;;10.80;99.90;;;;;;4983502;28;19913;-71
2022/04/07 05:17:23;;;;;;;;;;;10.90;99.90;;;;;;4987039;28;20571;-72
2022/04/07 05:19:49;;;;;;;0.40;0.32;;;10.90;99.90;;;;;;4985214;28;19913;-72
2022/04/07 05:22:15;;;;;;;0.50;0.40;;;10.90;99.90;;;;;;4985325;28;20514;-71
2022/04/07 05:24:41;;;;;;;1.07;0.43;;;10.90;99.90;;;;;;4990635;28;20046;-72
2022/04/07 05:27:07;;;;;;;0.93;0.63;;;10.90;99.90;;;;;;4988465;28;20034;-71
2022/04/07 05:29:35;;;;;;;2.17;0.80;;;10.90;99.90;;;;;;4987620;28;20542;-71
2022/04/07 05:32:01;;;;;;;1.33;0.80;;;10.90;99.90;;;;;;4986217;28;20022;-71
2022/04/07 05:34:26;;;;;;;2.23;0.50;;;11.00;99.90;;;;;;4989849;28;20037;-71
2022/04/07 05:36:52;;;;;;;0.80;0.67;;;11.00;99.90;;;;;;4983635;28;21527;-72
2022/04/07 05:39:18;;;;;;;0.80;0.80;;;11.00;99.90;;;;;;4987179;28;20048;-71
2022/04/07 05:41:44;;;;;;;1.90;1.10;;;11.00;99.90;;;;;;4980001;28;20026;-72
2022/04/07 05:44:10;;;;;;;1.75;0.88;;;11.00;99.90;;;;;;4984561;28;20026;-72
2022/04/07 05:46:35;;;;;;;1.00;0.90;;;11.10;99.90;;;;;;4983522;28;20039;-71
2022/04/07 05:49:01;;;;;;;0.83;0.80;;;11.10;99.90;;;;;;4986583;28;20014;-71
2022/04/07 05:51:27;;;;;;;3.00;1.30;;;11.20;99.90;;;;;;4990176;28;20032;-71
2022/04/07 05:53:53;;;;;;;1.77;0.97;;;11.20;99.90;;;;;;4981239;28;20030;-72
2022/04/07 05:56:19;;;;;;;;;;;11.30;99.90;;;;;;4991112;28;20034;-72
2022/04/07 05:58:44;;;;;;;3.03;0.90;;;11.30;99.90;;;;;;4983577;28;19920;-72
2022/04/07 06:01:11;;;;;;;0.80;0.57;;;11.30;99.90;;;;;;4988753;28;20626;-72
2022/04/07 06:03:37;;;;;;;1.00;0.70;;;11.40;99.90;;;;;;4992377;28;20025;-72
2022/04/07 06:06:03;;;;;;;1.03;0.90;;;11.50;99.90;;;;;;4987064;28;20450;-71
2022/04/07 06:08:31;;;;;;;;;;;11.50;99.90;;;;;;4991652;28;20033;-71
2022/04/07 06:10:57;;;;;;;0.70;0.70;;;11.50;99.90;;;;;;4982342;28;19905;-71
2022/04/07 06:13:24;;;;;;;0.82;0.82;;;11.50;99.90;;;;;;4989923;28;20035;-71
2022/04/07 06:15:50;;;;;;;;;;;11.60;99.90;;;;;;4987254;28;20208;-71
2022/04/07 06:18:16;;;;;;;1.08;0.75;;;11.60;99.90;;;;;;4989849;28;20365;-71
2022/04/07 06:20:42;;;;;;;0.80;0.80;;;11.70;99.90;;;;;;4983543;28;20037;-72
2022/04/07 06:23:09;;;;;;;2.23;0.60;;;11.90;99.90;;;;;;4988089;28;20045;-71
2022/04/07 06:25:36;;;;;;;1.35;0.75;;;12.00;99.90;;;;;;4990274;28;20296;-71
2022/04/07 06:28:04;;;;;;;;;;;12.20;99.90;;;;;;4986211;28;20037;-71
2022/04/07 06:30:30;;;;;;;1.15;0.75;;;12.40;99.90;;;;;;4986487;28;19988;-71
2022/04/07 06:32:56;;;;;;;0.75;0.73;;;12.40;99.90;;;;;;4990343;28;20049;-71
2022/04/07 06:35:27;;;;;;;1.40;0.90;;;12.60;99.90;;;;;;4989297;28;20107;-71
2022/04/07 06:37:57;;;;;;;1.17;0.98;;;12.80;99.90;;;;;;4988759;28;20026;-70
2022/04/07 06:40:24;;;;;;;1.10;0.68;;;13.10;99.90;;;;;;4994665;28;20030;-71
2022/04/07 06:42:51;;;;;;;1.08;0.98;;;13.60;99.90;;;;;;4986262;28;20570;-71
2022/04/07 06:45:18;;;;;;;1.20;0.73;;;14.00;99.90;;;;;;4988850;28;20029;-71
2022/04/07 06:47:44;;;;;;;0.80;0.80;;;14.50;99.90;;;;;;4986239;28;21580;-71
2022/04/07 06:50:12;;;;;;;1.20;1.10;;;14.90;99.90;;;;;;4988847;28;20042;-71
2022/04/07 06:52:38;;;;;;;1.38;0.80;;;15.40;99.90;;;;;;4989212;28;20390;-71
2022/04/07 06:55:05;;;;;;;1.23;0.70;;;15.50;99.80;;;;;;4990301;28;20026;-71
2022/04/07 06:57:30;;;;;;;1.02;0.93;;;15.30;99.90;;;;;;4993472;28;20026;-71
2022/04/07 06:59:56;;;;;;;1.00;0.90;;;15.10;99.90;;;;;;4987130;28;20025;-71
2022/04/07 07:02:22;;;;;;;0.90;0.80;;;14.90;99.90;;;;;;4988079;28;20026;-71
2022/04/07 07:04:49;;;;;;;0.82;0.70;;;15.20;99.90;;;;;;4986974;28;20030;-71
2022/04/07 07:07:16;;;;;;;0.70;0.70;;;15.50;99.60;;;;;;4988502;28;20038;-71
2022/04/07 07:09:42;;;;;;;0.70;0.65;;;15.60;99.70;;;;;;4992430;28;20461;-71
2022/04/07 07:12:07;;;;;;;0.63;0.63;;;15.60;99.40;;;;;;5478020;23;20068;-71
2022/04/07 07:17:55;;;;;;;1.60;1.00;;;15.40;99.90;;;;;;5021399;28;20032;-71
2022/04/07 07:23:43;;;;;;;0.77;0.77;;;15.50;99.30;;;;;;5023166;28;20045;-71
2022/04/07 07:29:30;;;;;;;0.80;0.80;;;15.60;98.20;;;;;;5024681;28;20021;-71
2022/04/07 07:35:19;;;;;;;0.75;0.70;;;16.30;96.70;;;;;;5024636;28;20029;-71
2022/04/07 07:41:07;;;;;;;0.88;0.88;;;15.40;98.10;;;;;;5023063;28;20025;-71
2022/04/07 07:46:55;;;;;;;1.95;0.68;;;14.70;99.20;;;;;;5023743;28;20025;-71
2022/04/07 07:52:43;;;;;;;0.82;0.70;;;14.40;99.90;;;;;;5023367;28;20024;-71
2022/04/07 07:58:30;;;;;;;1.98;1.02;;;14.30;99.90;;;;;;5020775;28;20079;-71
2022/04/07 08:04:18;;;;;;;2.03;0.80;;;14.30;99.90;;;;;;5019835;28;20029;-71
2022/04/07 08:06:44;;;;;;;0.97;0.87;;;14.60;99.90;;;;;;4994962;28;20237;-71
2022/04/07 08:09:13;;;;;;;1.00;0.90;;;15.00;99.90;;;;;;4993553;28;20080;-71
2022/04/07 08:11:43;;;;;;;0.90;0.90;;;15.50;99.20;;;;;;4987952;28;20051;-71
2022/04/07 08:14:10;;;;;;;1.02;0.93;;;16.20;98.50;;;;;;4988777;28;20038;-71
2022/04/07 08:16:36;;;;;;;1.23;1.13;;;16.90;96.00;;;;;;4983655;28;20030;-71
2022/04/07 08:19:03;;;;;;;0.90;0.75;;;16.90;94.70;;;;;;4983023;28;20018;-71
2022/04/07 08:21:30;;;;;;;1.88;1.15;;;16.90;94.60;;;;;;4986321;28;20360;-71
2022/04/07 08:23:57;;;;;;;1.33;0.90;;;16.90;94.30;;;;;;4984448;28;20038;-71
2022/04/07 08:26:24;;;;;;;2.50;1.05;;;16.70;94.20;;;;;;4993070;28;20049;-71
2022/04/07 08:28:50;;;;;;;1.25;1.08;;;16.50;94.20;;;;;;4985638;28;20061;-71
2022/04/07 08:31:16;;;;;;;1.10;1.00;;;16.30;94.30;;;;;;4971351;28;20117;-71
2022/04/07 08:33:42;;;;;;;2.72;2.13;;;16.20;94.10;;;;;;4992951;28;20264;-71
2022/04/07 08:36:08;;;;;;;0.82;0.80;;;16.20;94.00;;;;;;4987212;28;20092;-71
2022/04/07 08:38:33;;;;;;;3.10;1.10;;;16.10;93.70;;;;;;4993081;28;20033;-71
2022/04/07 08:41:00;;;;;;;1.85;1.13;;;15.90;94.00;;;;;;4990564;28;20022;-71
2022/04/07 08:43:26;;;;;;;1.17;1.00;;;15.70;94.50;;;;;;4969442;28;20026;-72
2022/04/07 08:45:51;;;;;;;1.65;1.00;;;15.70;94.70;;;;;;4968863;28;20030;-71
2022/04/07 08:48:17;;;;;;;0.93;0.80;;;15.90;94.60;;;;;;4991912;28;20375;-71
2022/04/07 08:50:44;;;;;;;1.85;1.10;;;16.10;94.40;;;;;;4990097;28;20659;-71
2022/04/07 08:53:13;;;;;;;0.82;0.80;;;16.60;93.50;;;;;;4985468;28;20030;-71
2022/04/07 08:55:39;;;;;;;0.63;0.63;;;17.40;91.80;;;;;;4992371;28;20101;-71
2022/04/07 08:58:05;;;;;;;0.70;0.70;;;18.50;90.70;;;;;;4981840;28;20115;-71
2022/04/07 09:00:32;;;;;;;;;;;19.20;88.60;;;;;;4986509;28;20027;-71
2022/04/07 09:02:58;;;;;;;2.53;0.85;;;19.80;85.20;;;;;;4983160;28;19905;-74
2022/04/07 09:05:25;;;;;;;0.75;0.75;;;21.40;80.30;;;;;;4992348;28;20025;-73
2022/04/07 09:07:53;;;;;;;1.75;0.90;;;23.60;69.20;;;;;;4990089;28;20040;-74
2022/04/07 09:10:20;;;;;;;0.80;0.80;;;25.00;60.60;;;;;;4971944;28;20014;-73
2022/04/07 09:12:46;;;;;;;0.55;0.55;;;24.80;57.30;;;;;;4990607;28;20575;-73
2022/04/07 09:15:14;;;;;;;0.57;0.57;;;24.30;57.40;;;;;;4985465;28;20037;-74
2022/04/07 09:17:51;;;;;;;1.10;0.60;;;24.20;57.00;;;;;;4967995;28;20023;-73
2022/04/07 09:20:17;;;;;;;1.20;0.60;;;24.30;55.00;;;;;;4991388;28;20026;-73
2022/04/07 09:22:44;;;;;;;0.50;0.50;;;24.40;54.30;;;;;;4984701;28;20022;-73
2022/04/07 09:25:11;;;;;;;0.73;0.73;;;24.90;54.70;;;;;;4985636;28;21168;-73
2022/04/07 09:27:40;;;;;;;0.70;0.70;;;25.40;52.50;;;;;;4986525;28;20026;-73
2022/04/07 09:30:10;;;;;;;0.60;0.60;;;24.80;51.50;;;;;;4983716;28;20041;-73
2022/04/07 09:32:45;;;;;;;0.75;0.75;;;24.10;53.10;;;;;;4978931;28;20723;-73
2022/04/07 09:35:12;;;;;;;0.65;0.65;;;23.40;53.70;;;;;;4989138;28;20026;-75
2022/04/07 09:37:40;;;;;;;2.30;0.80;;;22.70;54.80;;;;;;4990476;28;20105;-75
2022/04/07 09:40:12;;;;;;;0.75;0.75;;;22.30;55.90;;;;;;4983566;28;20029;-73
2022/04/07 09:42:40;;;;;;;1.02;0.73;;;22.00;57.20;;;;;;4988760;28;20049;-73
2022/04/07 09:45:07;;;;;;;0.85;0.82;;;22.10;57.90;;;;;;4980547;28;20022;-75
2022/04/07 09:47:38;;;;;;;0.70;0.70;;;22.50;58.10;;;;;;4989291;28;20636;-75
2022/04/07 09:50:06;;;;;;;0.90;0.90;;;22.60;57.30;;;;;;4960902;28;20737;-75
2022/04/07 09:52:33;;;;;;;1.60;0.77;;;22.50;56.90;;;;;;4991166;28;20309;-75
2022/04/07 09:55:04;;;;;;;1.73;0.70;;;22.50;56.70;;;;;;4984036;28;20026;-76
2022/04/07 09:57:33;;;;;;;0.63;0.57;;;22.80;54.70;;;;;;4987789;28;20664;-76
2022/04/07 10:00:05;;;;;;;1.05;0.90;;;22.90;53.30;;;;;;4965680;28;20145;-76
2022/04/07 10:02:31;;;;;;;0.60;0.60;;;22.50;53.50;;;;;;4973213;28;20033;-75
2022/04/07 10:04:59;;;;;;;1.40;0.73;;;22.20;54.80;;;;;;4994854;28;20026;-75
2022/04/07 10:07:25;;;;;;;2.38;0.88;;;22.00;55.80;;;;;;4992639;28;20132;-75
2022/04/07 10:09:51;;;;;;;1.15;0.47;;;21.90;54.00;;;;;;4987952;28;20037;-75
2022/04/07 10:12:18;;;;;;;0.60;0.60;;;21.90;52.80;;;;;;4990452;28;20040;-76
2022/04/07 10:14:46;;;;;;;1.00;0.47;;;22.10;52.40;;;;;;4977060;28;20034;-76
2022/04/07 10:17:13;;;;;;;0.95;0.70;;;22.40;52.10;;;;;;4975769;28;20156;-76
2022/04/07 10:20:04;;;;;;;0.57;0.57;;;22.90;52.20;;;;;;4995199;28;20013;-76
2022/04/07 10:22:37;;;;;;;2.28;0.55;;;23.00;51.90;;;;;;4993599;28;20022;-76
2022/04/07 10:25:04;;;;;;;0.80;0.50;;;22.90;51.60;;;;;;4971584;28;20052;-75
2022/04/07 10:27:35;;;;;;;0.82;0.65;;;22.90;49.60;;;;;;4990230;28;20076;-75
2022/04/07 10:30:05;;;;;;;0.77;0.60;;;22.40;50.80;;;;;;4972996;28;20089;-75
2022/04/07 10:32:52;;;;;;;0.93;0.60;;;22.80;51.10;;;;;;4976762;28;20053;-75
2022/04/07 10:35:32;;;;;;;0.90;0.30;;;22.90;49.20;;;;;;4971704;28;20096;-75
2022/04/07 10:38:01;;;;;;;1.50;0.60;;;22.60;49.80;;;;;;4991616;28;20014;-75
2022/04/07 10:40:35;;;;;;;0.65;0.32;;;22.20;49.60;;;;;;4989127;28;20030;-76
2022/04/07 10:43:06;;;;;;;0.40;0.40;;;22.50;49.30;;;;;;4973723;28;20544;-75
2022/04/07 10:45:34;;;;;;;1.35;0.60;;;22.40;49.10;;;;;;4986727;28;20077;-75
2022/04/07 10:48:32;;;;;;;0.45;0.30;;;22.10;48.80;;;;;;4992370;28;20112;-75
2022/04/07 10:51:00;;;;;;;0.60;0.45;;;21.50;49.80;;;;;;4935819;28;20755;-76
2022/04/07 10:53:39;;;;;;;0.47;0.40;;;21.80;50.40;;;;;;4968655;28;20076;-73
2022/04/07 10:56:34;;;;;;;0.68;0.60;;;22.30;50.10;;;;;;4987323;28;20030;-73
2022/04/07 10:59:19;;;;;;;0.50;0.47;;;22.60;48.70;;;;;;4993705;28;20033;-75
2022/04/07 11:01:51;;;;;;;2.42;0.90;;;22.20;49.00;;;;;;4991251;28;20022;-72
2022/04/07 11:07:02;;;;;;;3.25;0.98;;;21.60;51.10;;;;;;4988882;28;20038;-72
2022/04/07 11:09:48;;;;;;;0.47;0.47;;;21.60;51.50;;;;;;4992685;28;20019;-72
2022/04/07 11:12:25;;;;;;;4.00;0.60;;;21.50;51.40;;;;;;4985681;28;20025;-72
2022/04/07 11:15:13;;;;;;;1.55;0.50;;;21.10;52.60;;;;;;4989526;28;20025;-72
2022/04/07 11:23:14;;;;;;;0.77;0.40;;;20.80;54.20;;;;;;5794640;23;20025;-82
2022/04/07 11:47:57;;;;;;;0.47;0.47;;;21.30;52.30;;;;;;5604705;23;20049;-81
2022/04/07 11:51:06;;;;;;;0.90;0.68;;;20.90;53.40;;;;;;5047685;28;20408;-80
2022/04/07 11:53:39;;;;;;;0.60;0.40;;;20.70;53.80;;;;;;5046073;28;20018;-81
2022/04/07 11:56:17;;;;;;;1.20;0.68;;;20.60;53.70;;;;;;5100437;23;20037;-81
2022/04/07 11:59:05;;;;;;;0.35;0.35;;;20.70;53.20;;;;;;5052113;28;20060;-81
2022/04/07 12:01:52;;;;;;;1.15;0.38;;;20.50;52.70;;;;;;5045903;28;20108;-81
2022/04/07 12:04:44;;;;;;;1.77;0.45;;;20.30;53.90;;;;;;5067350;28;20028;-82
2022/04/07 12:30:49;;;;;;;2.08;0.50;;;20.60;50.90;;;;;;5052483;23;20046;-83
2022/04/07 12:34:07;;;;;;;0.88;0.43;;;20.00;51.80;;;;;;5015305;28;20010;-82
2022/04/07 12:37:10;;;;;;;0.20;0.20;;;20.00;51.60;;;;;;5049253;28;20041;-82
2022/04/07 12:43:21;;;;;;;0.45;0.30;;;20.40;51.50;;;;;;4994546;28;20036;-84
2022/04/07 12:46:44;;;;;;;0.25;0.25;;;20.40;51.40;;;;;;5053430;28;20044;-83
2022/04/07 12:50:12;;;;;;;1.85;0.40;;;20.50;51.30;;;;;;4925911;29;20083;-84
2022/04/07 13:34:28;;;;;;;0.38;0.30;;;20.20;50.60;;;;;;6038671;23;20021;-81
2022/04/07 13:50:04;;;;;;;1.63;0.17;;;20.20;49.70;;;;;;3531876;23;20060;-74
2022/04/07 13:52:34;;;;;;;0.68;0.30;;;20.30;48.90;;;;;;4984853;28;20025;-74
2022/04/07 13:55:08;;;;;;;0.55;0.30;;;20.20;49.00;;;;;;4986745;28;20026;-74
2022/04/07 13:57:34;;;;;;;0.22;0.22;;;20.10;48.50;;;;;;4998622;28;20109;-73
2022/04/07 14:00:04;;;;;;;0.43;0.30;;;19.90;49.10;;;;;;4988437;28;20022;-74
2022/04/07 14:02:32;;;;;;;1.38;0.35;;;19.80;49.70;;;;;;4979638;28;20014;-74
2022/04/07 14:04:57;;;;;;;1.60;0.30;;;19.80;50.20;;;;;;4990457;28;20026;-74
2022/04/07 14:07:23;;;;;;;0.30;0.30;;;20.00;49.50;;;;;;4976438;28;20041;-74
2022/04/07 14:09:51;;;;;;;1.55;0.22;;;20.10;49.70;;;;;;4981723;28;20038;-74
2022/04/07 14:12:16;;;;;;;0.20;0.20;;;20.00;49.00;;;;;;4991900;28;20026;-74
2022/04/07 14:14:44;;;;;;;1.15;0.50;;;19.90;48.90;;;;;;4977685;28;20073;-73
2022/04/07 14:17:10;;;;;;;0.82;0.40;;;20.00;49.20;;;;;;4981436;28;20029;-74
2022/04/07 14:19:37;;;;;;;2.65;0.60;;;19.90;49.40;;;;;;4977190;28;20033;-73
2022/04/07 14:22:04;;;;;;;1.75;0.68;;;19.90;49.00;;;;;;4982314;28;20029;-74
2022/04/07 14:24:30;;;;;;;0.90;0.40;;;19.80;48.20;;;;;;4978165;28;20411;-74
2022/04/07 14:26:58;;;;;;;0.60;0.38;;;19.70;48.60;;;;;;4973744;28;20073;-73
2022/04/07 14:29:23;;;;;;;0.40;0.40;;;19.70;48.70;;;;;;4978662;28;20560;-74
2022/04/07 14:31:51;;;;;;;0.32;0.28;;;19.70;49.10;;;;;;4982805;28;20018;-74
2022/04/07 14:34:20;;;;;;;2.28;0.57;;;19.60;48.40;;;;;;4976194;28;20488;-75
2022/04/07 14:37:02;;;;;;;0.80;0.50;;;19.60;49.80;;;;;;4997177;28;20026;-80
2022/04/07 14:39:27;;;;;;;0.22;0.22;;;19.70;50.00;;;;;;5000312;28;20030;-79
2022/04/07 14:41:54;;;;;;;1.50;0.50;;;19.90;48.90;;;;;;4982418;28;20034;-78
2022/04/07 14:44:26;;;;;;;3.53;0.57;;;19.90;48.20;;;;;;5004952;28;20015;-79
2022/04/07 14:46:53;;;;;;;5.00;0.93;;;20.00;49.10;;;;;;4993511;28;20074;-80
2022/04/07 14:49:28;;;;;;;1.63;0.30;;;20.00;49.30;;;;;;4993533;28;20033;-76
2022/04/07 14:51:55;;;;;;;1.50;0.70;;;20.10;49.20;;;;;;4989127;28;20034;-80
2022/04/07 14:54:25;;;;;;;4.95;2.72;;;20.20;47.70;;;;;;5000877;28;20547;-77
2022/04/07 14:56:51;;;;;;;4.85;2.85;;;20.10;47.30;;;;;;5010516;28;20027;-78
2022/04/07 14:59:16;;;;;;;1.48;0.95;;;20.10;48.10;;;;;;4977476;28;20029;-73
2022/04/07 15:01:43;;;;;;;2.90;0.50;;;20.20;49.00;;;;;;4978108;28;20033;-73
2022/04/07 15:04:09;;;;;;;3.97;0.68;;;20.20;49.30;;;;;;4974686;28;20026;-73
2022/04/07 15:06:36;;;;;;;5.70;0.70;;;20.20;48.70;;;;;;4978466;28;20023;-73
2022/04/07 15:09:03;;;;;;;2.72;0.60;;;20.10;49.50;;;;;;4972208;28;20029;-73
2022/04/07 15:11:29;;;;;;;0.90;0.50;;;20.10;47.60;;;;;;4978837;28;20138;-74
2022/04/07 15:13:55;;;;;;;0.50;0.35;;;20.10;47.60;;;;;;4976515;28;20129;-74
2022/04/07 15:16:28;;;;;;;3.25;0.50;;;20.00;48.00;;;;;;4978981;28;20618;-74
2022/04/07 15:18:54;;;;;;;2.60;0.60;;;20.00;49.10;;;;;;4978183;28;20416;-74
2022/04/07 15:21:19;;;;;;;3.55;0.60;;;20.00;49.10;;;;;;4965703;28;20022;-73
2022/04/07 15:23:45;;;;;;;0.77;0.28;;;19.90;49.20;;;;;;4977437;28;20057;-73